Wilmington, DE (19804)

2:01 PM EST on December 05, 2016 (GMT -0500)
Kiamensi Gardens | | Change Station

Elev 56 ft 39.72 °N, 75.64 °W | Updated 1 minute ago

Mostly Cloudy
Mostly Cloudy
49.9 °F
Feels Like 50 °F
N
0.0
Wind Variable Wind from WNW
Gusts 14.0 mph

Today
High -- | Low -- °F
--% Chance of Precip.
Yesterday
High -- | Low -- °F
Precip. -- in
Pressure 30.02 in
Visibility 10.0 miles
Clouds Mostly Cloudy 3200 ft
Windchill 50 °F
Dew Point 38 °F
Humidity 64%
Rainfall 0.11 in
Snow Depth Not available.
7:08 AM 4:37 PM
Waxing Crescent, 34% visible
METAR KILG 051851Z 33011KT 10SM BKN032 10/03 A3002 RMK AO2 SLP164 T01000033
Pressure 30.02 in
Visibility 10.0 miles
Clouds Mostly Cloudy 3200 ft
Windchill 50 °F
Dew Point 38 °F
Humidity 64%
Rainfall 0.11 in
Snow Depth Not available.
7:08 AM 4:37 PM
Waxing Crescent, 34% visible
METAR KILG 051851Z 33011KT 10SM BKN032 10/03 A3002 RMK AO2 SLP164 T01000033

10-Day Weather Forecast

Almanac

Astronomy

Dec. 05, 2016 Rise Set
Actual Time
Civil Twilight
Nautical Twilight
Astronomical Twilight
Moon
Length of Visible Light
Length of Day
Tomorrow will be .
, % of the Moon is Illuminated

Today's Extremes

State Highs State Lows

Community

WunderPhotos

Upload Photos

1,955,852 photos uploaded!

WunderBlog® & News

Nearby

Air Quality

  Air Quality AQ Index Pollutant
Not available.

Snow Depth

Station Depth Elevation

Earthquake Activity

City Distance Mag. Time & Date
Minimum magnitude displayed is 2.5.

Coastal Water Temperatures

Place Temperature

Stations

Nearby Weather Stations

Station Location Temp. Windchill Dew Point Humidity Wind Precip. Elev Updated Type
                   

Watches & Warnings

There are currently no watches in effect.